sensor_id;sensor_type;location;lat;lon;timestamp;P1;durP1;ratioP1;P2;durP2;ratioP2
21297;SDS011;10808;48.010;11.326;2022-09-13T00:00:39;3.80;;;3.40;;
21297;SDS011;10808;48.010;11.326;2022-09-13T00:03:06;3.42;;;3.13;;
21297;SDS011;10808;48.010;11.326;2022-09-13T00:05:35;5.25;;;3.40;;
21297;SDS011;10808;48.010;11.326;2022-09-13T00:08:01;4.45;;;3.50;;
21297;SDS011;10808;48.010;11.326;2022-09-13T00:10:28;5.72;;;3.40;;
21297;SDS011;10808;48.010;11.326;2022-09-13T00:12:55;4.22;;;3.35;;
21297;SDS011;10808;48.010;11.326;2022-09-13T00:15:21;3.45;;;3.15;;
21297;SDS011;10808;48.010;11.326;2022-09-13T00:17:47;3.67;;;3.37;;
21297;SDS011;10808;48.010;11.326;2022-09-13T00:20:13;3.83;;;3.42;;
21297;SDS011;10808;48.010;11.326;2022-09-13T00:22:39;4.35;;;3.80;;
21297;SDS011;10808;48.010;11.326;2022-09-13T00:25:06;5.70;;;3.50;;
21297;SDS011;10808;48.010;11.326;2022-09-13T00:27:32;3.80;;;3.40;;
21297;SDS011;10808;48.010;11.326;2022-09-13T00:29:59;4.22;;;3.42;;
21297;SDS011;10808;48.010;11.326;2022-09-13T00:32:25;4.70;;;3.78;;
21297;SDS011;10808;48.010;11.326;2022-09-13T00:34:52;4.27;;;3.70;;
21297;SDS011;10808;48.010;11.326;2022-09-13T00:37:18;3.72;;;3.35;;
21297;SDS011;10808;48.010;11.326;2022-09-13T00:39:44;4.50;;;3.58;;
21297;SDS011;10808;48.010;11.326;2022-09-13T00:42:13;3.55;;;3.25;;
21297;SDS011;10808;48.010;11.326;2022-09-13T00:47:21;3.17;;;2.88;;
21297;SDS011;10808;48.010;11.326;2022-09-13T00:50:00;3.83;;;3.20;;
21297;SDS011;10808;48.010;11.326;2022-09-13T00:52:31;3.20;;;2.90;;
21297;SDS011;10808;48.010;11.326;2022-09-13T00:55:00;6.40;;;3.10;;
21297;SDS011;10808;48.010;11.326;2022-09-13T00:57:31;6.77;;;2.90;;
21297;SDS011;10808;48.010;11.326;2022-09-13T01:02:40;3.30;;;2.63;;
21297;SDS011;10808;48.010;11.326;2022-09-13T01:05:19;3.20;;;2.90;;
21297;SDS011;10808;48.010;11.326;2022-09-13T01:07:48;3.17;;;2.80;;
21297;SDS011;10808;48.010;11.326;2022-09-13T01:10:15;4.00;;;2.75;;
21297;SDS011;10808;48.010;11.326;2022-09-13T01:12:47;5.28;;;2.95;;
21297;SDS011;10808;48.010;11.326;2022-09-13T01:15:21;4.85;;;2.50;;
21297;SDS011;10808;48.010;11.326;2022-09-13T01:17:48;2.97;;;2.70;;
21297;SDS011;10808;48.010;11.326;2022-09-13T01:20:16;3.58;;;2.70;;
21297;SDS011;10808;48.010;11.326;2022-09-13T01:31:28;3.28;;;2.75;;
21297;SDS011;10808;48.010;11.326;2022-09-13T01:39:16;3.10;;;2.50;;
21297;SDS011;10808;48.010;11.326;2022-09-13T01:42:12;6.88;;;2.60;;
21297;SDS011;10808;48.010;11.326;2022-09-13T01:45:06;2.80;;;2.60;;
21297;SDS011;10808;48.010;11.326;2022-09-13T01:47:49;3.38;;;2.47;;
21297;SDS011;10808;48.010;11.326;2022-09-13T01:50:28;5.20;;;2.65;;
21297;SDS011;10808;48.010;11.326;2022-09-13T01:53:33;2.85;;;2.50;;
21297;SDS011;10808;48.010;11.326;2022-09-13T01:59:05;3.50;;;2.37;;
21297;SDS011;10808;48.010;11.326;2022-09-13T02:01:42;2.70;;;2.50;;
21297;SDS011;10808;48.010;11.326;2022-09-13T02:04:43;2.90;;;2.57;;
21297;SDS011;10808;48.010;11.326;2022-09-13T02:07:16;3.30;;;2.25;;
21297;SDS011;10808;48.010;11.326;2022-09-13T02:09:48;3.85;;;2.70;;
21297;SDS011;10808;48.010;11.326;2022-09-13T02:12:19;2.67;;;2.47;;
21297;SDS011;10808;48.010;11.326;2022-09-13T02:14:57;2.80;;;2.50;;
21297;SDS011;10808;48.010;11.326;2022-09-13T02:17:43;2.60;;;2.40;;
21297;SDS011;10808;48.010;11.326;2022-09-13T02:20:27;3.97;;;2.33;;
21297;SDS011;10808;48.010;11.326;2022-09-13T02:23:09;2.60;;;2.40;;
21297;SDS011;10808;48.010;11.326;2022-09-13T02:25:40;2.95;;;2.22;;
21297;SDS011;10808;48.010;11.326;2022-09-13T02:28:20;2.90;;;2.10;;
21297;SDS011;10808;48.010;11.326;2022-09-13T02:31:02;4.50;;;2.47;;
21297;SDS011;10808;48.010;11.326;2022-09-13T02:33:53;4.20;;;2.40;;
21297;SDS011;10808;48.010;11.326;2022-09-13T02:36:28;2.45;;;2.03;;
21297;SDS011;10808;48.010;11.326;2022-09-13T02:39:43;2.58;;;2.20;;
21297;SDS011;10808;48.010;11.326;2022-09-13T02:42:20;3.77;;;2.10;;
21297;SDS011;10808;48.010;11.326;2022-09-13T02:45:02;2.80;;;2.30;;
21297;SDS011;10808;48.010;11.326;2022-09-13T02:47:44;2.33;;;2.13;;
21297;SDS011;10808;48.010;11.326;2022-09-13T02:50:53;3.10;;;2.30;;
21297;SDS011;10808;48.010;11.326;2022-09-13T02:56:56;4.10;;;2.25;;
21297;SDS011;10808;48.010;11.326;2022-09-13T02:59:30;3.00;;;2.10;;
21297;SDS011;10808;48.010;11.326;2022-09-13T03:01:58;2.53;;;2.10;;
21297;SDS011;10808;48.010;11.326;2022-09-13T03:04:26;2.55;;;2.10;;
21297;SDS011;10808;48.010;11.326;2022-09-13T03:06:53;2.10;;;1.90;;
21297;SDS011;10808;48.010;11.326;2022-09-13T03:09:20;3.45;;;2.10;;
21297;SDS011;10808;48.010;11.326;2022-09-13T03:21:22;2.67;;;1.60;;
21297;SDS011;10808;48.010;11.326;2022-09-13T03:24:24;1.77;;;1.60;;
21297;SDS011;10808;48.010;11.326;2022-09-13T03:29:57;2.85;;;1.60;;
21297;SDS011;10808;48.010;11.326;2022-09-13T03:32:47;2.80;;;1.60;;
21297;SDS011;10808;48.010;11.326;2022-09-13T03:40:39;1.55;;;1.45;;
21297;SDS011;10808;48.010;11.326;2022-09-13T03:43:34;2.33;;;1.52;;
21297;SDS011;10808;48.010;11.326;2022-09-13T03:46:28;2.45;;;1.40;;
21297;SDS011;10808;48.010;11.326;2022-09-13T03:49:00;1.60;;;1.40;;
21297;SDS011;10808;48.010;11.326;2022-09-13T03:51:31;1.50;;;1.40;;
21297;SDS011;10808;48.010;11.326;2022-09-13T03:53:59;1.40;;;1.30;;
21297;SDS011;10808;48.010;11.326;2022-09-13T03:56:27;3.92;;;1.50;;
21297;SDS011;10808;48.010;11.326;2022-09-13T03:58:59;1.77;;;1.40;;
21297;SDS011;10808;48.010;11.326;2022-09-13T04:01:26;2.78;;;1.90;;
21297;SDS011;10808;48.010;11.326;2022-09-13T04:03:52;2.55;;;1.50;;
21297;SDS011;10808;48.010;11.326;2022-09-13T04:06:18;2.38;;;1.50;;
21297;SDS011;10808;48.010;11.326;2022-09-13T04:08:44;2.60;;;1.35;;
21297;SDS011;10808;48.010;11.326;2022-09-13T04:11:11;2.42;;;1.20;;
21297;SDS011;10808;48.010;11.326;2022-09-13T04:13:37;2.55;;;1.50;;
21297;SDS011;10808;48.010;11.326;2022-09-13T04:16:05;1.40;;;1.30;;
21297;SDS011;10808;48.010;11.326;2022-09-13T04:18:32;2.75;;;1.33;;
21297;SDS011;10808;48.010;11.326;2022-09-13T04:20:59;3.25;;;1.50;;
21297;SDS011;10808;48.010;11.326;2022-09-13T04:23:27;2.40;;;1.40;;
21297;SDS011;10808;48.010;11.326;2022-09-13T04:25:54;2.60;;;1.48;;
21297;SDS011;10808;48.010;11.326;2022-09-13T04:28:25;2.00;;;1.65;;
21297;SDS011;10808;48.010;11.326;2022-09-13T04:30:52;1.92;;;1.40;;
21297;SDS011;10808;48.010;11.326;2022-09-13T04:33:18;1.65;;;1.42;;
21297;SDS011;10808;48.010;11.326;2022-09-13T04:35:44;2.75;;;1.50;;
21297;SDS011;10808;48.010;11.326;2022-09-13T04:38:10;5.10;;;1.57;;
21297;SDS011;10808;48.010;11.326;2022-09-13T04:40:36;4.90;;;1.80;;
21297;SDS011;10808;48.010;11.326;2022-09-13T04:43:03;1.90;;;1.60;;
21297;SDS011;10808;48.010;11.326;2022-09-13T04:45:29;2.33;;;1.47;;
21297;SDS011;10808;48.010;11.326;2022-09-13T04:47:56;2.25;;;1.80;;
21297;SDS011;10808;48.010;11.326;2022-09-13T04:50:23;1.95;;;1.60;;
21297;SDS011;10808;48.010;11.326;2022-09-13T04:52:50;3.55;;;1.92;;
21297;SDS011;10808;48.010;11.326;2022-09-13T04:55:19;3.85;;;1.80;;
21297;SDS011;10808;48.010;11.326;2022-09-13T04:57:45;2.15;;;1.52;;
21297;SDS011;10808;48.010;11.326;2022-09-13T05:00:12;1.60;;;1.50;;
21297;SDS011;10808;48.010;11.326;2022-09-13T05:02:38;1.90;;;1.50;;
21297;SDS011;10808;48.010;11.326;2022-09-13T05:05:04;3.03;;;1.70;;
21297;SDS011;10808;48.010;11.326;2022-09-13T05:07:30;2.75;;;1.70;;
21297;SDS011;10808;48.010;11.326;2022-09-13T05:09:56;4.38;;;1.77;;
21297;SDS011;10808;48.010;11.326;2022-09-13T05:12:22;5.00;;;1.60;;
21297;SDS011;10808;48.010;11.326;2022-09-13T05:14:48;2.67;;;1.73;;
21297;SDS011;10808;48.010;11.326;2022-09-13T05:17:15;5.47;;;1.55;;
21297;SDS011;10808;48.010;11.326;2022-09-13T05:19:41;4.83;;;1.93;;
21297;SDS011;10808;48.010;11.326;2022-09-13T05:22:07;3.72;;;1.90;;
21297;SDS011;10808;48.010;11.326;2022-09-13T05:24:33;1.90;;;1.70;;
21297;SDS011;10808;48.010;11.326;2022-09-13T05:26:59;2.22;;;2.00;;
21297;SDS011;10808;48.010;11.326;2022-09-13T05:29:25;4.28;;;2.30;;
21297;SDS011;10808;48.010;11.326;2022-09-13T05:31:51;4.40;;;2.30;;
21297;SDS011;10808;48.010;11.326;2022-09-13T05:34:17;2.80;;;2.40;;
21297;SDS011;10808;48.010;11.326;2022-09-13T05:36:45;3.13;;;2.17;;
21297;SDS011;10808;48.010;11.326;2022-09-13T05:39:12;3.97;;;2.10;;
21297;SDS011;10808;48.010;11.326;2022-09-13T05:41:39;5.27;;;2.30;;
21297;SDS011;10808;48.010;11.326;2022-09-13T05:44:06;3.53;;;2.30;;
21297;SDS011;10808;48.010;11.326;2022-09-13T05:46:32;3.15;;;2.10;;
21297;SDS011;10808;48.010;11.326;2022-09-13T05:48:58;3.85;;;2.17;;
21297;SDS011;10808;48.010;11.326;2022-09-13T05:51:25;3.88;;;2.25;;
21297;SDS011;10808;48.010;11.326;2022-09-13T05:53:51;3.07;;;2.10;;
21297;SDS011;10808;48.010;11.326;2022-09-13T05:56:23;4.40;;;2.27;;
21297;SDS011;10808;48.010;11.326;2022-09-13T05:58:51;5.05;;;2.30;;
21297;SDS011;10808;48.010;11.326;2022-09-13T06:01:18;2.50;;;1.98;;
21297;SDS011;10808;48.010;11.326;2022-09-13T06:03:47;2.20;;;2.00;;
21297;SDS011;10808;48.010;11.326;2022-09-13T06:06:14;2.30;;;2.10;;
21297;SDS011;10808;48.010;11.326;2022-09-13T06:08:40;4.93;;;2.03;;
21297;SDS011;10808;48.010;11.326;2022-09-13T06:11:07;4.25;;;1.95;;
21297;SDS011;10808;48.010;11.326;2022-09-13T06:13:34;3.90;;;2.00;;
21297;SDS011;10808;48.010;11.326;2022-09-13T06:16:02;3.10;;;1.88;;
21297;SDS011;10808;48.010;11.326;2022-09-13T06:18:30;3.05;;;1.90;;
21297;SDS011;10808;48.010;11.326;2022-09-13T06:21:02;2.92;;;1.90;;
21297;SDS011;10808;48.010;11.326;2022-09-13T06:23:32;3.70;;;2.30;;
21297;SDS011;10808;48.010;11.326;2022-09-13T06:25:59;5.10;;;1.60;;
21297;SDS011;10808;48.010;11.326;2022-09-13T06:28:30;3.30;;;1.70;;
21297;SDS011;10808;48.010;11.326;2022-09-13T06:31:00;1.88;;;1.58;;
21297;SDS011;10808;48.010;11.326;2022-09-13T06:33:34;2.80;;;1.50;;
21297;SDS011;10808;48.010;11.326;2022-09-13T06:36:02;2.40;;;1.70;;
21297;SDS011;10808;48.010;11.326;2022-09-13T06:38:30;1.97;;;1.40;;
21297;SDS011;10808;48.010;11.326;2022-09-13T06:41:00;2.63;;;1.42;;
21297;SDS011;10808;48.010;11.326;2022-09-13T06:43:32;1.48;;;1.38;;
21297;SDS011;10808;48.010;11.326;2022-09-13T06:46:02;1.85;;;1.27;;
21297;SDS011;10808;48.010;11.326;2022-09-13T06:48:33;1.70;;;1.40;;
21297;SDS011;10808;48.010;11.326;2022-09-13T06:51:03;3.40;;;1.40;;
21297;SDS011;10808;48.010;11.326;2022-09-13T06:53:32;1.45;;;1.30;;
21297;SDS011;10808;48.010;11.326;2022-09-13T06:56:00;3.80;;;1.50;;
21297;SDS011;10808;48.010;11.326;2022-09-13T06:58:28;2.15;;;1.23;;
21297;SDS011;10808;48.010;11.326;2022-09-13T07:03:35;1.83;;;1.40;;
21297;SDS011;10808;48.010;11.326;2022-09-13T07:06:06;2.90;;;1.30;;
21297;SDS011;10808;48.010;11.326;2022-09-13T07:08:33;2.42;;;1.20;;
21297;SDS011;10808;48.010;11.326;2022-09-13T07:10:59;2.80;;;1.38;;
21297;SDS011;10808;48.010;11.326;2022-09-13T07:13:25;2.30;;;1.40;;
21297;SDS011;10808;48.010;11.326;2022-09-13T07:15:51;1.20;;;1.08;;
21297;SDS011;10808;48.010;11.326;2022-09-13T07:18:17;2.08;;;1.20;;
21297;SDS011;10808;48.010;11.326;2022-09-13T07:20:44;1.38;;;1.05;;
21297;SDS011;10808;48.010;11.326;2022-09-13T07:23:10;1.90;;;1.03;;
21297;SDS011;10808;48.010;11.326;2022-09-13T07:25:36;2.33;;;1.17;;
21297;SDS011;10808;48.010;11.326;2022-09-13T07:28:02;0.82;;;0.82;;
21297;SDS011;10808;48.010;11.326;2022-09-13T07:30:28;1.83;;;1.10;;
21297;SDS011;10808;48.010;11.326;2022-09-13T07:32:54;1.67;;;1.10;;
21297;SDS011;10808;48.010;11.326;2022-09-13T07:35:20;2.70;;;1.20;;
21297;SDS011;10808;48.010;11.326;2022-09-13T07:37:47;2.10;;;1.23;;
21297;SDS011;10808;48.010;11.326;2022-09-13T07:40:13;1.45;;;1.10;;
21297;SDS011;10808;48.010;11.326;2022-09-13T07:42:39;1.33;;;1.20;;
21297;SDS011;10808;48.010;11.326;2022-09-13T07:45:05;1.90;;;1.10;;
21297;SDS011;10808;48.010;11.326;2022-09-13T07:47:31;2.53;;;1.15;;
21297;SDS011;10808;48.010;11.326;2022-09-13T07:49:58;2.80;;;0.98;;
21297;SDS011;10808;48.010;11.326;2022-09-13T07:52:24;1.20;;;1.10;;
21297;SDS011;10808;48.010;11.326;2022-09-13T07:54:50;2.42;;;1.10;;
21297;SDS011;10808;48.010;11.326;2022-09-13T07:57:16;7.25;;;1.20;;
21297;SDS011;10808;48.010;11.326;2022-09-13T07:59:42;3.97;;;1.50;;
21297;SDS011;10808;48.010;11.326;2022-09-13T08:02:08;2.05;;;1.15;;
21297;SDS011;10808;48.010;11.326;2022-09-13T08:04:34;1.60;;;1.13;;
21297;SDS011;10808;48.010;11.326;2022-09-13T08:07:00;2.15;;;1.00;;
21297;SDS011;10808;48.010;11.326;2022-09-13T08:09:26;2.85;;;1.15;;
21297;SDS011;10808;48.010;11.326;2022-09-13T08:11:52;1.40;;;1.08;;
21297;SDS011;10808;48.010;11.326;2022-09-13T08:14:19;1.60;;;1.02;;
21297;SDS011;10808;48.010;11.326;2022-09-13T08:16:46;1.80;;;1.23;;
21297;SDS011;10808;48.010;11.326;2022-09-13T08:19:14;3.25;;;1.10;;
21297;SDS011;10808;48.010;11.326;2022-09-13T08:21:44;2.53;;;1.10;;
21297;SDS011;10808;48.010;11.326;2022-09-13T08:24:17;1.10;;;1.00;;
21297;SDS011;10808;48.010;11.326;2022-09-13T08:26:47;1.30;;;0.98;;
21297;SDS011;10808;48.010;11.326;2022-09-13T08:29:14;1.53;;;1.00;;
21297;SDS011;10808;48.010;11.326;2022-09-13T08:31:40;2.15;;;1.10;;
21297;SDS011;10808;48.010;11.326;2022-09-13T08:34:09;1.60;;;1.00;;
21297;SDS011;10808;48.010;11.326;2022-09-13T08:36:37;3.65;;;1.15;;
21297;SDS011;10808;48.010;11.326;2022-09-13T08:39:04;1.27;;;0.95;;
21297;SDS011;10808;48.010;11.326;2022-09-13T08:44:08;1.17;;;1.08;;
21297;SDS011;10808;48.010;11.326;2022-09-13T08:46:57;2.20;;;1.00;;
21297;SDS011;10808;48.010;11.326;2022-09-13T08:49:29;1.30;;;0.90;;
21297;SDS011;10808;48.010;11.326;2022-09-13T08:54:40;1.10;;;1.00;;
21297;SDS011;10808;48.010;11.326;2022-09-13T09:02:26;1.52;;;1.10;;
21297;SDS011;10808;48.010;11.326;2022-09-13T09:05:20;1.10;;;0.95;;
21297;SDS011;10808;48.010;11.326;2022-09-13T09:07:58;4.30;;;1.13;;
21297;SDS011;10808;48.010;11.326;2022-09-13T09:15:47;1.67;;;1.00;;
21297;SDS011;10808;48.010;11.326;2022-09-13T09:20:53;1.23;;;0.90;;
21297;SDS011;10808;48.010;11.326;2022-09-13T09:23:40;3.10;;;1.08;;
21297;SDS011;10808;48.010;11.326;2022-09-13T09:28:42;1.65;;;1.00;;
21297;SDS011;10808;48.010;11.326;2022-09-13T09:31:21;2.80;;;1.40;;
21297;SDS011;10808;48.010;11.326;2022-09-13T09:36:50;2.03;;;1.00;;
21297;SDS011;10808;48.010;11.326;2022-09-13T09:39:33;3.08;;;0.90;;
21297;SDS011;10808;48.010;11.326;2022-09-13T09:42:04;1.10;;;0.83;;
21297;SDS011;10808;48.010;11.326;2022-09-13T09:44:42;1.20;;;1.10;;
21297;SDS011;10808;48.010;11.326;2022-09-13T09:47:13;2.22;;;1.00;;
21297;SDS011;10808;48.010;11.326;2022-09-13T09:49:50;1.30;;;1.00;;
21297;SDS011;10808;48.010;11.326;2022-09-13T09:52:47;1.88;;;1.02;;
21297;SDS011;10808;48.010;11.326;2022-09-13T09:55:30;2.50;;;0.98;;
21297;SDS011;10808;48.010;11.326;2022-09-13T09:58:05;3.78;;;1.13;;
21297;SDS011;10808;48.010;11.326;2022-09-13T10:00:35;1.10;;;1.00;;
21297;SDS011;10808;48.010;11.326;2022-09-13T10:03:18;2.90;;;1.30;;
21297;SDS011;10808;48.010;11.326;2022-09-13T10:05:50;1.15;;;1.00;;
21297;SDS011;10808;48.010;11.326;2022-09-13T10:08:25;1.40;;;1.00;;
21297;SDS011;10808;48.010;11.326;2022-09-13T10:10:58;3.83;;;1.27;;
21297;SDS011;10808;48.010;11.326;2022-09-13T10:13:25;2.63;;;1.20;;
21297;SDS011;10808;48.010;11.326;2022-09-13T10:18:23;1.25;;;1.00;;
21297;SDS011;10808;48.010;11.326;2022-09-13T10:21:04;1.85;;;1.27;;
21297;SDS011;10808;48.010;11.326;2022-09-13T10:23:35;2.17;;;1.38;;
21297;SDS011;10808;48.010;11.326;2022-09-13T10:26:06;2.45;;;1.10;;
21297;SDS011;10808;48.010;11.326;2022-09-13T10:29:20;4.88;;;1.40;;
21297;SDS011;10808;48.010;11.326;2022-09-13T10:31:29;2.35;;;1.08;;
21297;SDS011;10808;48.010;11.326;2022-09-13T10:34:16;1.27;;;1.10;;
21297;SDS011;10808;48.010;11.326;2022-09-13T10:36:58;1.20;;;1.10;;
21297;SDS011;10808;48.010;11.326;2022-09-13T10:39:29;1.92;;;1.13;;
21297;SDS011;10808;48.010;11.326;2022-09-13T10:47:36;2.60;;;1.20;;
21297;SDS011;10808;48.010;11.326;2022-09-13T10:52:48;2.08;;;1.10;;
21297;SDS011;10808;48.010;11.326;2022-09-13T10:57:46;3.45;;;1.05;;
21297;SDS011;10808;48.010;11.326;2022-09-13T11:00:22;2.00;;;1.10;;
21297;SDS011;10808;48.010;11.326;2022-09-13T11:03:05;2.03;;;1.02;;
21297;SDS011;10808;48.010;11.326;2022-09-13T11:08:40;2.30;;;1.05;;
21297;SDS011;10808;48.010;11.326;2022-09-13T11:21:53;3.30;;;1.20;;
21297;SDS011;10808;48.010;11.326;2022-09-13T11:27:36;2.85;;;1.00;;
21297;SDS011;10808;48.010;11.326;2022-09-13T11:30:19;1.27;;;0.98;;
21297;SDS011;10808;48.010;11.326;2022-09-13T11:41:18;3.08;;;1.10;;
21297;SDS011;10808;48.010;11.326;2022-09-13T11:44:14;3.67;;;1.10;;
21297;SDS011;10808;48.010;11.326;2022-09-13T11:56:05;4.03;;;1.00;;
21297;SDS011;10808;48.010;11.326;2022-09-13T11:58:41;1.67;;;0.90;;
21297;SDS011;10808;48.010;11.326;2022-09-13T12:01:22;1.20;;;0.90;;
21297;SDS011;10808;48.010;11.326;2022-09-13T12:04:08;1.52;;;0.95;;
21297;SDS011;10808;48.010;11.326;2022-09-13T12:06:43;3.53;;;0.93;;
21297;SDS011;10808;48.010;11.326;2022-09-13T12:09:24;4.27;;;1.10;;
21297;SDS011;10808;48.010;11.326;2022-09-13T12:12:04;2.80;;;0.88;;
21297;SDS011;10808;48.010;11.326;2022-09-13T12:14:49;1.90;;;0.82;;
21297;SDS011;10808;48.010;11.326;2022-09-13T12:17:24;1.23;;;1.03;;
21297;SDS011;10808;48.010;11.326;2022-09-13T12:20:14;1.73;;;1.00;;
21297;SDS011;10808;48.010;11.326;2022-09-13T12:23:02;1.80;;;1.08;;
21297;SDS011;10808;48.010;11.326;2022-09-13T12:25:41;2.22;;;0.82;;
21297;SDS011;10808;48.010;11.326;2022-09-13T12:28:33;2.60;;;1.00;;
21297;SDS011;10808;48.010;11.326;2022-09-13T12:31:16;2.08;;;1.00;;
21297;SDS011;10808;48.010;11.326;2022-09-13T12:33:46;1.65;;;1.08;;
21297;SDS011;10808;48.010;11.326;2022-09-13T12:39:04;2.63;;;0.98;;
21297;SDS011;10808;48.010;11.326;2022-09-13T12:42:10;1.15;;;0.90;;
21297;SDS011;10808;48.010;11.326;2022-09-13T12:44:46;1.30;;;0.85;;
21297;SDS011;10808;48.010;11.326;2022-09-13T12:58:39;2.40;;;1.00;;
21297;SDS011;10808;48.010;11.326;2022-09-13T13:01:24;1.33;;;0.90;;
21297;SDS011;10808;48.010;11.326;2022-09-13T13:03:55;1.92;;;0.80;;
21297;SDS011;10808;48.010;11.326;2022-09-13T13:06:36;1.30;;;0.90;;
21297;SDS011;10808;48.010;11.326;2022-09-13T13:09:24;0.93;;;0.88;;
21297;SDS011;10808;48.010;11.326;2022-09-13T13:12:10;2.20;;;0.90;;
21297;SDS011;10808;48.010;11.326;2022-09-13T13:14:53;2.72;;;1.00;;
21297;SDS011;10808;48.010;11.326;2022-09-13T13:17:50;2.17;;;0.90;;
21297;SDS011;10808;48.010;11.326;2022-09-13T13:23:54;1.13;;;0.82;;
21297;SDS011;10808;48.010;11.326;2022-09-13T13:29:31;2.45;;;0.90;;
21297;SDS011;10808;48.010;11.326;2022-09-13T13:39:36;2.10;;;1.03;;
21297;SDS011;10808;48.010;11.326;2022-09-13T13:49:44;1.70;;;0.90;;
21297;SDS011;10808;48.010;11.326;2022-09-13T13:52:37;3.60;;;1.00;;
21297;SDS011;10808;48.010;11.326;2022-09-13T13:57:59;2.72;;;0.90;;
21297;SDS011;10808;48.010;11.326;2022-09-13T14:00:27;2.03;;;0.90;;
21297;SDS011;10808;48.010;11.326;2022-09-13T14:16:21;1.85;;;1.10;;
21297;SDS011;10808;48.010;11.326;2022-09-13T14:24:43;1.10;;;0.90;;
21297;SDS011;10808;48.010;11.326;2022-09-13T14:27:17;2.30;;;0.93;;
21297;SDS011;10808;48.010;11.326;2022-09-13T14:29:50;2.63;;;0.90;;
21297;SDS011;10808;48.010;11.326;2022-09-13T14:32:23;1.15;;;0.80;;
21297;SDS011;10808;48.010;11.326;2022-09-13T14:35:00;4.85;;;1.05;;
21297;SDS011;10808;48.010;11.326;2022-09-13T14:37:33;2.65;;;1.00;;
21297;SDS011;10808;48.010;11.326;2022-09-13T14:42:40;3.30;;;0.90;;
21297;SDS011;10808;48.010;11.326;2022-09-13T14:45:15;1.10;;;0.80;;
21297;SDS011;10808;48.010;11.326;2022-09-13T14:50:18;0.95;;;0.73;;
21297;SDS011;10808;48.010;11.326;2022-09-13T14:55:15;0.93;;;0.70;;
21297;SDS011;10808;48.010;11.326;2022-09-13T14:57:47;2.13;;;0.80;;
21297;SDS011;10808;48.010;11.326;2022-09-13T15:00:20;3.00;;;0.98;;
21297;SDS011;10808;48.010;11.326;2022-09-13T15:02:49;1.55;;;0.85;;
21297;SDS011;10808;48.010;11.326;2022-09-13T15:05:21;1.55;;;0.90;;
21297;SDS011;10808;48.010;11.326;2022-09-13T15:07:48;1.23;;;0.90;;
21297;SDS011;10808;48.010;11.326;2022-09-13T15:10:22;2.15;;;0.98;;
21297;SDS011;10808;48.010;11.326;2022-09-13T15:13:00;2.03;;;0.93;;
21297;SDS011;10808;48.010;11.326;2022-09-13T15:20:27;1.67;;;0.80;;
21297;SDS011;10808;48.010;11.326;2022-09-13T15:23:13;2.05;;;0.70;;
21297;SDS011;10808;48.010;11.326;2022-09-13T15:25:50;1.00;;;0.70;;
21297;SDS011;10808;48.010;11.326;2022-09-13T15:28:22;4.27;;;1.00;;
21297;SDS011;10808;48.010;11.326;2022-09-13T15:31:01;1.95;;;0.90;;
21297;SDS011;10808;48.010;11.326;2022-09-13T15:33:31;3.78;;;0.90;;
21297;SDS011;10808;48.010;11.326;2022-09-13T15:36:21;1.40;;;0.98;;
21297;SDS011;10808;48.010;11.326;2022-09-13T15:41:34;2.25;;;1.00;;
21297;SDS011;10808;48.010;11.326;2022-09-13T15:44:02;1.00;;;0.90;;
21297;SDS011;10808;48.010;11.326;2022-09-13T15:49:32;2.07;;;0.87;;
21297;SDS011;10808;48.010;11.326;2022-09-13T15:51:59;2.88;;;0.80;;
21297;SDS011;10808;48.010;11.326;2022-09-13T15:54:30;4.45;;;0.90;;
21297;SDS011;10808;48.010;11.326;2022-09-13T15:56:58;1.02;;;0.85;;
21297;SDS011;10808;48.010;11.326;2022-09-13T15:59:24;3.58;;;0.98;;
21297;SDS011;10808;48.010;11.326;2022-09-13T16:01:51;1.83;;;0.90;;
21297;SDS011;10808;48.010;11.326;2022-09-13T16:04:17;1.17;;;1.00;;
21297;SDS011;10808;48.010;11.326;2022-09-13T16:06:44;1.08;;;0.90;;
21297;SDS011;10808;48.010;11.326;2022-09-13T16:09:15;1.17;;;0.88;;
21297;SDS011;10808;48.010;11.326;2022-09-13T16:11:49;1.70;;;1.00;;
21297;SDS011;10808;48.010;11.326;2022-09-13T16:14:16;1.70;;;1.00;;
21297;SDS011;10808;48.010;11.326;2022-09-13T16:16:43;3.00;;;1.40;;
21297;SDS011;10808;48.010;11.326;2022-09-13T16:19:14;2.58;;;1.08;;
21297;SDS011;10808;48.010;11.326;2022-09-13T16:21:45;2.90;;;1.23;;
21297;SDS011;10808;48.010;11.326;2022-09-13T16:24:12;2.70;;;1.02;;
21297;SDS011;10808;48.010;11.326;2022-09-13T16:26:38;3.72;;;1.13;;
21297;SDS011;10808;48.010;11.326;2022-09-13T16:29:05;1.38;;;0.98;;
21297;SDS011;10808;48.010;11.326;2022-09-13T16:31:31;2.92;;;1.00;;
21297;SDS011;10808;48.010;11.326;2022-09-13T16:33:57;2.25;;;0.95;;
21297;SDS011;10808;48.010;11.326;2022-09-13T16:36:23;2.67;;;0.98;;
21297;SDS011;10808;48.010;11.326;2022-09-13T16:38:56;2.92;;;1.00;;
21297;SDS011;10808;48.010;11.326;2022-09-13T16:41:22;3.20;;;0.98;;
21297;SDS011;10808;48.010;11.326;2022-09-13T16:43:48;2.58;;;1.08;;
21297;SDS011;10808;48.010;11.326;2022-09-13T16:46:14;3.03;;;1.10;;
21297;SDS011;10808;48.010;11.326;2022-09-13T16:48:41;4.65;;;1.83;;
21297;SDS011;10808;48.010;11.326;2022-09-13T16:51:08;5.20;;;1.63;;
21297;SDS011;10808;48.010;11.326;2022-09-13T16:53:36;3.40;;;1.77;;
21297;SDS011;10808;48.010;11.326;2022-09-13T16:56:22;3.35;;;1.60;;
21297;SDS011;10808;48.010;11.326;2022-09-13T16:58:49;3.88;;;1.30;;
21297;SDS011;10808;48.010;11.326;2022-09-13T17:01:17;5.25;;;1.52;;
21297;SDS011;10808;48.010;11.326;2022-09-13T17:03:49;3.45;;;1.27;;
21297;SDS011;10808;48.010;11.326;2022-09-13T17:06:16;4.47;;;1.40;;
21297;SDS011;10808;48.010;11.326;2022-09-13T17:08:51;4.82;;;1.60;;
21297;SDS011;10808;48.010;11.326;2022-09-13T17:11:23;3.35;;;1.48;;
21297;SDS011;10808;48.010;11.326;2022-09-13T17:13:51;5.28;;;1.58;;
21297;SDS011;10808;48.010;11.326;2022-09-13T17:16:18;3.40;;;1.50;;
21297;SDS011;10808;48.010;11.326;2022-09-13T17:18:45;4.40;;;1.40;;
21297;SDS011;10808;48.010;11.326;2022-09-13T17:21:11;4.85;;;1.63;;
21297;SDS011;10808;48.010;11.326;2022-09-13T17:23:37;3.60;;;1.75;;
21297;SDS011;10808;48.010;11.326;2022-09-13T17:26:03;2.67;;;1.63;;
21297;SDS011;10808;48.010;11.326;2022-09-13T17:28:30;2.53;;;1.60;;
21297;SDS011;10808;48.010;11.326;2022-09-13T17:30:56;4.00;;;1.85;;
21297;SDS011;10808;48.010;11.326;2022-09-13T17:33:22;4.03;;;2.05;;
21297;SDS011;10808;48.010;11.326;2022-09-13T17:35:56;2.90;;;2.10;;
21297;SDS011;10808;48.010;11.326;2022-09-13T17:38:27;4.50;;;2.00;;
21297;SDS011;10808;48.010;11.326;2022-09-13T17:41:06;4.13;;;1.98;;
21297;SDS011;10808;48.010;11.326;2022-09-13T17:43:35;2.63;;;2.10;;
21297;SDS011;10808;48.010;11.326;2022-09-13T17:46:05;4.57;;;2.40;;
21297;SDS011;10808;48.010;11.326;2022-09-13T17:48:33;5.15;;;2.78;;
21297;SDS011;10808;48.010;11.326;2022-09-13T17:51:03;4.68;;;3.20;;
21297;SDS011;10808;48.010;11.326;2022-09-13T17:53:31;5.28;;;3.40;;
21297;SDS011;10808;48.010;11.326;2022-09-13T17:56:02;6.70;;;2.90;;
21297;SDS011;10808;48.010;11.326;2022-09-13T17:58:28;4.50;;;3.03;;
21297;SDS011;10808;48.010;11.326;2022-09-13T18:01:01;4.18;;;2.50;;
21297;SDS011;10808;48.010;11.326;2022-09-13T18:03:32;4.78;;;2.40;;
21297;SDS011;10808;48.010;11.326;2022-09-13T18:06:00;3.58;;;1.95;;
21297;SDS011;10808;48.010;11.326;2022-09-13T18:08:27;2.80;;;1.70;;
21297;SDS011;10808;48.010;11.326;2022-09-13T18:11:00;5.78;;;2.38;;
21297;SDS011;10808;48.010;11.326;2022-09-13T18:13:28;5.53;;;1.90;;
21297;SDS011;10808;48.010;11.326;2022-09-13T18:15:58;3.20;;;1.70;;